createdAt,value
2023-05-06T00:05:47.375Z,97129.34
2023-05-06T00:15:52.907Z,96998.00
2023-05-06T00:25:59.502Z,96823.19
2023-05-06T00:36:06.467Z,96621.06
2023-05-06T00:46:13.095Z,96484.78
2023-05-06T00:56:20.907Z,96479.84
2023-05-06T01:06:29.096Z,96530.06
2023-05-06T01:16:37.920Z,96611.97
2023-05-06T01:26:45.386Z,96726.16
2023-05-06T01:37:16.243Z,96796.06
2023-05-06T01:47:22.879Z,96817.78
2023-05-06T01:57:30.291Z,96815.28
2023-05-06T02:07:37.070Z,96805.75
2023-05-06T02:17:44.692Z,96782.75
2023-05-06T02:27:51.336Z,96756.19
2023-05-06T02:37:57.776Z,96731.50
2023-05-06T02:48:04.438Z,96689.81
2023-05-06T02:58:10.987Z,96659.00
2023-05-06T03:08:17.611Z,96633.75
2023-05-06T03:18:24.168Z,96610.81
2023-05-06T03:28:30.685Z,96562.06
2023-05-06T03:38:37.192Z,96538.59
2023-05-06T03:48:43.698Z,96515.34
2023-05-06T03:58:50.378Z,96505.56
2023-05-06T04:08:57.016Z,96495.91
2023-05-06T04:19:06.457Z,96491.47
2023-05-06T04:29:13.190Z,96497.16
2023-05-06T04:39:19.737Z,96515.66
2023-05-06T04:49:26.245Z,96530.34
2023-05-06T04:59:32.761Z,96523.44
2023-05-06T05:09:39.309Z,96516.38
2023-05-06T05:19:45.817Z,96471.50
2023-05-06T05:29:52.304Z,96474.31
2023-05-06T05:39:58.919Z,96487.47
2023-05-06T05:50:05.796Z,96513.78
2023-05-06T06:00:13.546Z,96553.75
2023-05-06T06:10:20.364Z,96583.75
2023-05-06T06:20:26.918Z,96635.78
2023-05-06T06:30:33.389Z,96714.03
2023-05-06T06:40:39.900Z,96737.84
2023-05-06T06:50:46.665Z,96744.66
2023-05-06T07:00:53.690Z,96726.72
2023-05-06T07:11:00.192Z,96720.81
2023-05-06T07:21:06.723Z,96690.41
2023-05-06T07:31:13.364Z,96696.41
2023-05-06T07:41:19.987Z,96696.94
2023-05-06T07:51:26.570Z,96714.41
2023-05-06T08:01:33.103Z,96681.09
2023-05-06T08:11:40.285Z,96652.63
2023-05-06T08:21:46.745Z,96649.38
2023-05-06T08:31:53.331Z,96669.66
2023-05-06T08:42:01.069Z,96692.06
2023-05-06T08:52:08.048Z,96630.31
2023-05-06T09:02:14.679Z,96641.31
2023-05-06T09:12:21.169Z,96646.34
2023-05-06T09:22:29.205Z,96582.84
2023-05-06T09:32:39.121Z,96517.41
2023-05-06T09:42:46.768Z,96357.66
2023-05-06T09:52:53.833Z,96299.38
2023-05-06T10:03:00.611Z,95984.28
2023-05-06T10:13:07.487Z,95773.19
2023-05-06T10:23:28.227Z,95536.06
2023-05-06T10:33:35.333Z,95177.97
2023-05-06T10:43:44.000Z,94893.13
2023-05-06T10:54:09.983Z,94534.13
2023-05-06T11:04:19.320Z,93968.81
2023-05-06T11:14:40.925Z,93381.53
2023-05-06T11:24:47.409Z,92966.09
2023-05-06T11:34:57.334Z,92513.16
2023-05-06T11:45:03.885Z,92199.94
2023-05-06T11:55:11.462Z,92087.00
2023-05-06T12:05:17.946Z,91522.50
2023-05-06T12:15:24.548Z,90835.12
2023-05-06T12:25:31.052Z,89881.50
2023-05-06T12:35:37.538Z,89464.91
2023-05-06T12:45:44.164Z,89384.41
2023-05-06T12:55:50.661Z,89109.72
2023-05-06T13:05:57.169Z,88945.28
2023-05-06T13:16:04.088Z,88773.69
2023-05-06T13:26:10.564Z,88569.50
2023-05-06T13:36:17.199Z,88097.09
2023-05-06T13:46:24.556Z,88158.97
2023-05-06T13:56:31.153Z,87989.16
2023-05-06T14:06:37.662Z,87877.66
2023-05-06T14:16:44.202Z,88040.00
2023-05-06T14:26:50.796Z,88149.87
2023-05-06T14:36:57.366Z,88464.53
2023-05-06T14:47:04.058Z,89242.62
2023-05-06T14:57:11.068Z,90545.88
2023-05-06T15:07:17.981Z,91458.28
2023-05-06T15:17:24.519Z,92060.25
2023-05-06T15:27:32.103Z,92630.13
2023-05-06T15:37:38.594Z,92957.94
2023-05-06T15:47:45.159Z,93280.22
2023-05-06T15:57:52.371Z,93502.09
2023-05-06T16:07:58.991Z,93411.78
2023-05-06T16:18:05.635Z,93849.06
2023-05-06T16:28:12.452Z,93966.78
2023-05-06T16:38:19.033Z,94033.75
2023-05-06T16:48:25.737Z,94034.56
2023-05-06T16:58:32.366Z,94040.56
2023-05-06T17:08:38.946Z,94066.53
2023-05-06T17:18:47.449Z,94020.84
2023-05-06T17:28:54.000Z,93996.69
2023-05-06T17:39:06.800Z,93941.16
2023-05-06T17:49:13.383Z,93941.72
2023-05-06T17:59:23.124Z,93934.06
2023-05-06T18:09:29.695Z,93946.28
2023-05-06T18:19:35.255Z,93923.28
2023-05-06T18:29:42.634Z,93920.25
2023-05-06T18:39:49.216Z,93902.47
2023-05-06T18:49:56.163Z,93812.72
2023-05-06T19:00:02.674Z,93745.28
2023-05-06T19:10:09.683Z,93615.56
2023-05-06T19:20:16.318Z,93499.25
2023-05-06T19:30:22.951Z,93200.41
2023-05-06T19:40:30.343Z,93064.09
2023-05-06T19:50:36.939Z,92958.47
2023-05-06T20:00:43.470Z,92813.53
2023-05-06T20:10:50.106Z,92693.13
2023-05-06T20:20:57.693Z,92586.75
2023-05-06T20:31:04.165Z,92564.41
2023-05-06T20:41:11.321Z,92518.78
2023-05-06T20:51:17.897Z,92482.69
2023-05-06T21:01:25.605Z,92422.31
2023-05-06T21:11:32.246Z,92369.38
2023-05-06T21:21:38.831Z,92314.91
2023-05-06T21:31:45.329Z,92222.91
2023-05-06T21:41:51.876Z,92198.34
2023-05-06T21:51:58.338Z,92231.06
2023-05-06T22:02:05.413Z,92331.59
2023-05-06T22:12:14.479Z,92411.56
2023-05-06T22:22:20.960Z,92383.94
2023-05-06T22:32:27.688Z,92323.13
2023-05-06T22:42:34.268Z,92174.47
2023-05-06T22:52:41.030Z,91951.16
2023-05-06T23:02:47.680Z,91747.28
2023-05-06T23:12:54.254Z,91550.91
2023-05-06T23:23:00.879Z,91395.94
2023-05-06T23:33:08.300Z,91142.53
2023-05-06T23:43:14.847Z,90966.12
2023-05-06T23:53:21.863Z,90866.84
